Time;durP1;ratioP1;P1;durP2;ratioP2;P2;SDS_P1;SDS_P2;PMS_P1;PMS_P2;Temp;Humidity;BMP_temperature;BMP_pressure;BME280_temperature;BME280_humidity;BME280_pressure;Samples;Min_cycle;Max_cycle;Signal;HPM_P1;HPM_P2
2021/12/29 00:04:42;;;;;;;17.48;11.02;;;;;;;9.43;100.00;98067.81;5030355;28;20110;-93
2021/12/29 00:07:10;;;;;;;21.17;11.23;;;;;;;9.49;100.00;98073.84;5036131;28;20045;-93
2021/12/29 00:09:37;;;;;;;17.33;10.73;;;;;;;9.35;100.00;98050.44;5035810;28;20033;-92
2021/12/29 00:12:04;;;;;;;18.65;11.30;;;;;;;9.29;100.00;98022.31;5036204;28;20038;-94
2021/12/29 00:14:31;;;;;;;17.55;10.90;;;;;;;9.30;100.00;98047.03;5035718;28;20504;-93
2021/12/29 00:20:28;;;;;;;18.30;11.25;;;;;;;9.22;100.00;98048.16;5036289;28;20025;-94
2021/12/29 00:22:54;;;;;;;18.40;11.30;;;;;;;9.38;100.00;98071.53;5036378;28;20064;-94
2021/12/29 00:25:20;;;;;;;21.35;12.00;;;;;;;9.29;100.00;98054.13;5036012;28;20071;-93
2021/12/29 00:27:46;;;;;;;20.08;11.52;;;;;;;9.19;100.00;98042.94;5035987;28;20053;-93
2021/12/29 00:33:38;;;;;;;16.20;10.55;;;;;;;9.29;100.00;98047.97;5027218;28;20026;-93
2021/12/29 00:36:04;;;;;;;20.05;11.77;;;;;;;9.21;100.00;98053.53;5035775;28;20099;-90
2021/12/29 00:38:30;;;;;;;20.63;11.68;;;;;;;9.27;100.00;98060.41;5035952;28;20045;-93
2021/12/29 00:40:55;;;;;;;19.80;10.32;;;;;;;9.34;100.00;98054.84;5035990;28;20174;-94
2021/12/29 00:43:24;;;;;;;18.23;10.98;;;;;;;9.28;100.00;98040.91;5036391;28;20096;-93
2021/12/29 00:49:47;;;;;;;19.00;11.63;;;;;;;9.38;100.00;98079.50;5035398;28;20041;-95
2021/12/29 00:52:14;;;;;;;18.60;11.05;;;;;;;9.29;100.00;98077.16;5036110;28;20053;-94
2021/12/29 00:54:44;;;;;;;19.30;10.57;;;;;;;9.36;100.00;98079.53;5035739;28;20047;-94
2021/12/29 00:57:11;;;;;;;20.98;11.70;;;;;;;9.32;100.00;98072.59;5036083;28;20495;-93
2021/12/29 00:59:37;;;;;;;16.00;10.50;;;;;;;9.31;100.00;98067.38;5036316;28;20041;-94
2021/12/29 01:05:26;;;;;;;23.10;11.73;;;;;;;9.30;100.00;98055.84;5016587;28;20081;-94
2021/12/29 01:07:52;;;;;;;18.33;11.25;;;;;;;9.32;100.00;98061.13;5035879;28;20044;-93
2021/12/29 01:10:18;;;;;;;18.83;11.48;;;;;;;9.41;100.00;98068.75;5036054;28;20037;-93
2021/12/29 01:12:53;;;;;;;21.60;10.35;;;;;;;9.23;100.00;98046.38;5035675;28;20060;-93
2021/12/29 01:15:25;;;;;;;17.95;10.75;;;;;;;9.39;100.00;98066.19;5035461;28;20048;-93
2021/12/29 01:17:53;;;;;;;19.55;11.38;;;;;;;9.38;100.00;98066.22;5035847;28;20128;-94
2021/12/29 01:20:21;;;;;;;17.60;10.80;;;;;;;9.37;100.00;98070.69;5035644;28;20528;-94
2021/12/29 01:22:50;;;;;;;19.17;11.52;;;;;;;9.30;100.00;98053.19;5039117;28;20046;-93
2021/12/29 01:25:16;;;;;;;19.48;11.55;;;;;;;9.23;100.00;98038.41;5039162;28;20072;-94
2021/12/29 01:27:42;;;;;;;20.50;12.05;;;;;;;9.34;100.00;98057.50;5039134;28;20081;-93
2021/12/29 01:36:54;;;;;;;20.80;11.23;;;;;;;9.31;100.00;98057.59;5021464;28;20033;-93
2021/12/29 01:39:24;;;;;;;19.95;11.50;;;;;;;9.33;100.00;98061.09;5038701;28;20402;-93
2021/12/29 01:41:54;;;;;;;23.33;12.50;;;;;;;9.38;100.00;98069.75;5039077;28;20436;-93
2021/12/29 01:44:24;;;;;;;21.60;12.02;;;;;;;9.27;100.00;98049.81;5038901;28;20045;-93
2021/12/29 01:50:23;;;;;;;21.60;11.77;;;;;;;9.39;100.00;98052.03;5038546;28;20037;-93
2021/12/29 01:52:55;;;;;;;25.73;12.57;;;;;;;9.44;100.00;98074.00;5038448;28;20146;-92
2021/12/29 01:55:25;;;;;;;22.52;13.50;;;;;;;9.43;100.00;98069.59;5038598;28;20124;-93
2021/12/29 01:57:52;;;;;;;21.05;11.32;;;;;;;9.38;100.00;98055.63;5018778;28;20041;-93
2021/12/29 02:04:32;;;;;;;21.27;11.70;;;;;;;9.46;100.00;98075.66;5038150;28;20113;-92
2021/12/29 02:06:58;;;;;;;21.83;11.95;;;;;;;9.44;100.00;98066.03;5036041;28;20040;-93
2021/12/29 02:09:24;;;;;;;21.45;12.68;;;;;;;9.36;100.00;98054.81;5038326;28;20041;-92
2021/12/29 02:11:52;;;;;;;24.38;12.13;;;;;;;9.40;100.00;98065.25;5037926;28;20041;-92
2021/12/29 02:14:18;;;;;;;21.95;12.68;;;;;;;9.43;100.00;98072.25;5036592;28;20055;-93
2021/12/29 02:23:34;;;;;;;20.65;12.40;;;;;;;9.44;100.00;98074.84;5018332;28;20042;-93
2021/12/29 02:26:00;;;;;;;22.85;12.23;;;;;;;9.42;100.00;98076.69;5020664;28;20034;-94
2021/12/29 02:28:33;;;;;;;22.83;12.18;;;;;;;9.48;100.00;98080.94;5037942;28;20096;-93
2021/12/29 02:34:20;;;;;;;20.13;11.50;;;;;;;9.43;100.00;98083.75;5037563;28;20029;-92
2021/12/29 02:36:47;;;;;;;22.20;12.52;;;;;;;9.50;100.00;98097.69;5037671;28;20033;-93
2021/12/29 02:39:17;;;;;;;25.35;13.27;;;;;;;9.38;100.00;98071.53;5037768;28;20588;-93
2021/12/29 02:41:46;;;;;;;24.13;13.30;;;;;;;9.44;100.00;98081.94;5040025;28;20344;-92
2021/12/29 02:44:17;;;;;;;22.42;13.05;;;;;;;9.42;100.00;98070.53;5037875;28;20399;-93
2021/12/29 02:50:06;;;;;;;22.15;13.25;;;;;;;9.40;100.00;98077.66;5037559;28;20033;-93
2021/12/29 02:52:31;;;;;;;22.92;13.02;;;;;;;9.45;100.00;98079.25;5037635;28;20199;-91
2021/12/29 02:54:59;;;;;;;18.23;11.55;;;;;;;9.50;100.00;98086.16;5037507;28;20115;-94
2021/12/29 02:57:25;;;;;;;22.00;11.82;;;;;;;9.40;100.00;98070.56;5037917;28;20095;-93
2021/12/29 02:59:50;;;;;;;23.88;12.05;;;;;;;9.36;100.00;98062.75;5038260;28;20045;-93
2021/12/29 03:02:16;;;;;;;20.55;10.95;;;;;;;9.47;100.00;98079.19;5037678;28;20049;-92
2021/12/29 03:04:42;;;;;;;19.02;11.00;;;;;;;9.44;100.00;98079.31;5037294;28;20105;-93
2021/12/29 03:07:08;;;;;;;20.20;10.98;;;;;;;9.49;100.00;98092.41;5038531;28;20053;-93
2021/12/29 03:09:34;;;;;;;20.13;10.57;;;;;;;9.50;100.00;98100.31;5037254;28;20042;-92
2021/12/29 03:12:01;;;;;;;17.30;10.27;;;;;;;9.47;100.00;98089.78;5037431;28;20427;-94
2021/12/29 03:14:27;;;;;;;20.83;10.73;;;;;;;9.43;100.00;98085.50;5036856;28;20060;-94
2021/12/29 03:20:35;;;;;;;19.10;10.23;;;;;;;9.41;100.00;98082.03;5037478;28;20045;-93
2021/12/29 03:23:00;;;;;;;20.02;10.30;;;;;;;9.43;100.00;98096.13;5037284;28;20076;-92
2021/12/29 03:25:27;;;;;;;21.83;10.95;;;;;;;9.43;100.00;98085.50;5036386;28;20510;-93
2021/12/29 03:27:58;;;;;;;18.80;10.25;;;;;;;9.40;100.00;98075.00;5036570;28;20050;-93
2021/12/29 03:34:32;;;;;;;15.95;9.63;;;;;;;9.47;100.00;98081.84;5015535;28;20087;-93
2021/12/29 03:36:58;;;;;;;16.50;9.30;;;;;;;9.42;100.00;98067.88;5015622;28;20030;-94
2021/12/29 03:39:26;;;;;;;14.52;9.30;;;;;;;9.38;100.00;98066.22;5015870;28;20096;-95
2021/12/29 03:41:52;;;;;;;19.33;9.90;;;;;;;9.38;100.00;98055.63;5018136;28;20046;-93
2021/12/29 03:44:19;;;;;;;15.02;9.60;;;;;;;9.37;100.00;98053.91;5035160;28;20041;-95
2021/12/29 03:50:08;;;;;;;21.42;10.65;;;;;;;9.46;100.00;98078.31;5043020;28;20025;-93
2021/12/29 03:52:34;;;;;;;17.48;10.68;;;;;;;9.37;100.00;98053.91;5057679;28;20044;-95
2021/12/29 03:54:59;;;;;;;16.63;10.35;;;;;;;9.35;100.00;98042.47;5057724;28;20048;-94
2021/12/29 03:57:25;;;;;;;17.27;10.20;;;;;;;9.36;100.00;98049.50;5056635;28;20391;-94
2021/12/29 03:59:53;;;;;;;22.00;10.85;;;;;;;9.43;100.00;98061.63;5055402;28;20515;-95
2021/12/29 04:06:09;;;;;;;18.63;11.32;;;;;;;9.37;100.00;98046.78;5054920;28;20044;-93
2021/12/29 04:08:35;;;;;;;22.80;11.20;;;;;;;9.34;100.00;98038.06;5054460;28;20052;-94
2021/12/29 04:11:01;;;;;;;17.92;10.50;;;;;;;9.34;100.00;98046.88;5055035;28;20391;-95
2021/12/29 04:13:27;;;;;;;22.48;12.63;;;;;;;9.33;100.00;98045.16;5054157;28;20143;-93
2021/12/29 04:22:41;;;;;;;19.30;10.13;;;;;;;9.38;100.00;98047.66;5154672;27;20123;-94
2021/12/29 04:25:08;;;;;;;18.67;10.38;;;;;;;9.35;100.00;98034.50;5153464;27;20049;-94
2021/12/29 04:27:33;;;;;;;19.50;10.55;;;;;;;9.40;100.00;98051.13;5153764;27;20077;-94
2021/12/29 04:29:59;;;;;;;18.33;10.30;;;;;;;9.44;100.00;98058.06;5153830;27;20031;-95
2021/12/29 04:35:47;;;;;;;17.80;9.57;;;;;;;9.35;100.00;98048.63;5153515;27;20030;-94
2021/12/29 04:38:15;;;;;;;17.77;10.40;;;;;;;9.35;100.00;98047.78;5153529;27;20053;-94
2021/12/29 04:40:42;;;;;;;17.77;9.57;;;;;;;9.31;100.00;98056.75;5153139;27;20039;-93
2021/12/29 04:43:08;;;;;;;17.42;9.75;;;;;;;9.45;100.00;98070.41;5153082;27;20031;-95
2021/12/29 04:49:40;;;;;;;19.15;9.35;;;;;;;9.48;100.00;98072.06;5153601;27;20027;-93
2021/12/29 04:52:06;;;;;;;14.82;7.95;;;;;;;9.34;100.00;98061.94;5153885;27;20123;-94
2021/12/29 04:54:34;;;;;;;15.25;8.27;;;;;;;9.36;100.00;98070.72;5153094;27;20096;-95
2021/12/29 04:57:00;;;;;;;12.18;7.68;;;;;;;9.29;100.00;98058.59;5153000;27;20100;-94
2021/12/29 04:59:27;;;;;;;13.65;7.28;;;;;;;9.39;100.00;98082.09;5152684;27;20042;-95
2021/12/29 05:05:28;;;;;;;13.32;7.32;;;;;;;9.36;100.00;98079.53;5152644;27;20034;-94
2021/12/29 05:10:54;;;;;;;11.15;6.78;;;;;;;9.29;100.00;98061.25;5146108;27;20384;-93
2021/12/29 05:13:20;;;;;;;;;;;;;;;9.37;100.00;98091.91;5112616;28;20131;-93
2021/12/29 05:19:33;;;;;;;9.90;6.30;;;;;;;9.44;100.00;98095.22;5112529;28;20043;-93
2021/12/29 05:21:59;;;;;;;9.35;6.07;;;;;;;9.40;100.00;98091.78;5112017;28;20539;-94
2021/12/29 05:24:25;;;;;;;9.75;5.75;;;;;;;9.30;100.00;98070.91;5112248;28;20028;-93
2021/12/29 05:26:52;;;;;;;10.27;6.65;;;;;;;9.49;100.00;98114.50;5112086;28;20553;-93
2021/12/29 05:29:18;;;;;;;11.38;6.38;;;;;;;9.40;100.00;98114.81;5111924;28;20052;-93
2021/12/29 05:35:06;;;;;;;15.00;6.95;;;;;;;9.45;100.00;98091.63;5111805;28;20032;-94
2021/12/29 05:37:32;;;;;;;11.40;6.60;;;;;;;9.49;100.00;98095.91;5111848;28;20134;-94
2021/12/29 05:39:59;;;;;;;12.25;6.63;;;;;;;9.39;100.00;98102.44;5112131;28;20036;-94
2021/12/29 05:42:26;;;;;;;11.88;6.35;;;;;;;9.37;100.00;98105.19;5112043;28;20040;-94
2021/12/29 05:44:52;;;;;;;12.13;6.25;;;;;;;9.31;100.00;98097.41;5111717;28;20046;-94
2021/12/29 05:50:40;;;;;;;13.13;5.65;;;;;;;9.35;100.00;98103.50;5111765;28;20034;-93
2021/12/29 05:53:06;;;;;;;9.90;5.68;;;;;;;9.31;100.00;98100.06;5111943;28;20378;-95
2021/12/29 05:55:32;;;;;;;10.23;5.80;;;;;;;9.43;100.00;98127.97;5111635;28;20067;-93
2021/12/29 05:57:59;;;;;;;11.18;5.60;;;;;;;9.32;100.00;98101.78;5111484;28;20047;-94
2021/12/29 06:04:33;;;;;;;9.05;4.82;;;;;;;9.45;100.00;98120.81;5111626;28;20035;-94
2021/12/29 06:06:58;;;;;;;9.95;5.30;;;;;;;9.31;100.00;98107.16;5111219;28;20055;-95
2021/12/29 06:09:25;;;;;;;8.55;5.07;;;;;;;9.37;100.00;98125.53;5110965;28;20075;-93
2021/12/29 06:11:50;;;;;;;9.30;4.65;;;;;;;9.30;100.00;98118.69;5111152;28;20046;-95
2021/12/29 06:14:18;;;;;;;10.50;4.45;;;;;;;9.36;100.00;98127.31;5111285;28;20126;-95
2021/12/29 06:20:09;;;;;;;6.80;4.20;;;;;;;9.34;100.00;98115.00;5109051;28;20024;-94
2021/12/29 06:22:35;;;;;;;5.15;3.80;;;;;;;9.34;100.00;98118.53;5097928;28;20398;-93
2021/12/29 06:25:01;;;;;;;7.50;4.35;;;;;;;9.27;100.00;98108.19;5097250;28;20044;-94
2021/12/29 06:27:27;;;;;;;8.85;4.13;;;;;;;9.29;100.00;98117.81;5097242;28;20051;-94
2021/12/29 06:29:54;;;;;;;7.47;4.22;;;;;;;9.29;100.00;98116.97;5097465;28;20189;-92
2021/12/29 06:35:42;;;;;;;7.22;4.10;;;;;;;9.39;100.00;98143.13;5097143;28;20488;-93
2021/12/29 06:38:08;;;;;;;7.53;4.15;;;;;;;9.26;100.00;98117.94;5097085;28;20101;-93
2021/12/29 06:40:33;;;;;;;6.95;3.90;;;;;;;9.34;100.00;98121.19;5097493;28;20036;-94
2021/12/29 06:43:04;;;;;;;8.23;4.00;;;;;;;9.42;100.00;98127.09;5100256;28;20048;-92
2021/12/29 06:45:32;;;;;;;6.97;3.95;;;;;;;9.31;100.00;98107.16;5098657;28;20107;-94
2021/12/29 06:47:58;;;;;;;8.15;4.38;;;;;;;9.30;100.00;98097.44;5096907;28;20048;-94
2021/12/29 06:50:24;;;;;;;6.82;4.13;;;;;;;9.41;100.00;98116.53;5096769;28;20573;-95
2021/12/29 06:52:50;;;;;;;6.95;3.92;;;;;;;9.46;100.00;98130.53;5096857;28;20044;-94
2021/12/29 06:55:16;;;;;;;12.27;4.47;;;;;;;9.49;100.00;98124.25;5096963;28;20036;-95
2021/12/29 06:57:41;;;;;;;9.38;5.72;;;;;;;9.37;100.00;98105.19;5096737;28;20052;-94
2021/12/29 07:06:52;;;;;;;8.13;4.78;;;;;;;9.44;100.00;98127.06;5096578;28;20119;-94
2021/12/29 07:09:19;;;;;;;10.02;4.43;;;;;;;9.49;100.00;98133.06;5096181;28;20048;-93
2021/12/29 07:11:45;;;;;;;8.35;4.95;;;;;;;9.52;100.00;98146.28;5096457;28;20070;-95
2021/12/29 07:14:12;;;;;;;9.25;5.53;;;;;;;9.56;100.00;98139.06;5096506;28;20127;-94
2021/12/29 07:20:00;;;;;;;12.27;5.57;;;;;;;9.60;100.00;98162.78;5096522;28;20036;-95
2021/12/29 07:22:27;;;;;;;8.35;4.75;;;;;;;9.50;100.00;98152.53;5096252;28;20047;-94
2021/12/29 07:24:53;;;;;;;8.48;4.68;;;;;;;9.48;100.00;98143.72;5096281;28;20131;-94
2021/12/29 07:27:18;;;;;;;10.48;5.40;;;;;;;9.60;100.00;98164.56;5096839;28;20068;-93
2021/12/29 07:29:44;;;;;;;9.65;5.75;;;;;;;9.57;100.00;98157.59;5096683;28;20095;-94
2021/12/29 07:35:32;;;;;;;15.05;7.03;;;;;;;9.75;100.00;98189.75;5092460;28;20028;-93
2021/12/29 07:37:59;;;;;;;12.70;6.18;;;;;;;9.76;100.00;98183.50;5096102;28;20101;-93
2021/12/29 07:40:25;;;;;;;11.07;6.57;;;;;;;9.69;100.00;98171.38;5096290;28;20040;-94
2021/12/29 07:42:51;;;;;;;11.32;6.40;;;;;;;9.74;100.00;98175.63;5096600;28;20478;-95
2021/12/29 07:49:31;;;;;;;11.50;7.10;;;;;;;9.88;100.00;98194.59;5098345;28;20036;-93
2021/12/29 07:51:56;;;;;;;12.73;7.07;;;;;;;9.86;100.00;98188.47;5100212;28;20039;-96
2021/12/29 07:54:24;;;;;;;11.40;7.10;;;;;;;9.73;100.00;98175.66;5101630;28;20131;-95
2021/12/29 07:56:50;;;;;;;11.85;6.95;;;;;;;9.65;100.00;98168.84;5102164;28;20070;-94
2021/12/29 07:59:18;;;;;;;9.68;6.75;;;;;;;9.74;100.00;98182.72;5102001;28;20051;-93
2021/12/29 08:05:07;;;;;;;12.43;8.20;;;;;;;9.93;100.00;98183.84;5101794;28;20020;-93
2021/12/29 08:07:34;;;;;;;16.05;9.25;;;;;;;9.97;100.00;98189.91;5101393;28;20051;-94
2021/12/29 08:10:01;;;;;;;17.85;10.35;;;;;;;9.94;100.00;98180.25;5101252;28;20050;-93
2021/12/29 08:12:27;;;;;;;17.95;9.45;;;;;;;9.91;100.00;98179.47;5100585;28;20048;-94
2021/12/29 08:14:53;;;;;;;17.70;10.10;;;;;;;10.05;100.00;98201.16;5096137;28;20054;-95
2021/12/29 08:20:41;;;;;;;14.23;8.60;;;;;;;10.26;100.00;98202.19;5096261;28;20036;-95
2021/12/29 08:23:08;;;;;;;16.05;8.98;;;;;;;10.13;100.00;98175.19;5097246;28;20059;-94
2021/12/29 08:25:37;;;;;;;21.45;10.02;;;;;;;10.18;100.00;98180.34;5096303;28;20051;-94
2021/12/29 08:28:04;;;;;;;15.68;8.18;;;;;;;10.31;100.00;98199.41;5096137;28;20075;-94
2021/12/29 08:34:31;;;;;;;12.23;7.35;;;;;;;10.53;100.00;98236.72;5095223;28;20039;-93
2021/12/29 08:36:57;;;;;;;13.13;7.65;;;;;;;10.53;100.00;98226.97;5094801;28;20028;-93
2021/12/29 08:39:25;;;;;;;14.00;8.23;;;;;;;10.63;100.00;98222.19;5094977;28;20085;-94
2021/12/29 08:41:52;;;;;;;15.68;9.77;;;;;;;10.77;100.00;98241.16;5094835;28;20044;-94
2021/12/29 08:44:19;;;;;;;16.38;10.32;;;;;;;10.77;100.00;98227.88;5094763;28;20097;-93
2021/12/29 08:50:10;;;;;;;15.93;9.73;;;;;;;10.89;100.00;98250.50;5094714;28;20027;-93
2021/12/29 08:52:37;;;;;;;;;;;;;;;10.92;100.00;98254.84;5095700;28;20044;-94
2021/12/29 08:55:05;;;;;;;18.70;10.70;;;;;;;10.88;100.00;98249.59;5095629;28;19915;-94
2021/12/29 08:57:32;;;;;;;17.67;11.65;;;;;;;10.89;100.00;98251.38;5094869;28;20047;-95
2021/12/29 08:59:59;;;;;;;19.33;12.20;;;;;;;11.03;100.00;98257.97;5095452;28;20105;-93
2021/12/29 09:05:48;;;;;;;16.52;10.85;;;;;;;10.97;100.00;98244.88;5094812;28;20478;-94
2021/12/29 09:08:14;;;;;;;17.17;10.82;;;;;;;11.03;100.00;98242.00;5094578;28;20044;-93
2021/12/29 09:10:42;;;;;;;18.38;11.02;;;;;;;10.87;100.00;98234.59;5094366;28;20048;-94
2021/12/29 09:13:09;;;;;;;20.42;12.57;;;;;;;10.87;100.00;98249.69;5094572;28;20075;-94
2021/12/29 09:19:39;;;;;;;17.15;10.68;;;;;;;11.07;100.00;98267.56;5094512;28;20028;-94
2021/12/29 09:22:05;;;;;;;21.38;13.88;;;;;;;11.19;100.00;98269.78;5094065;28;20044;-92
2021/12/29 09:24:31;;;;;;;20.92;12.40;;;;;;;11.28;100.00;98260.59;5094280;28;20041;-93
2021/12/29 09:26:57;;;;;;;22.85;13.05;;;;;;;11.34;100.00;98249.66;5094655;28;20051;-94
2021/12/29 09:29:24;;;;;;;18.38;11.68;;;;;;;11.30;100.00;98246.28;5094664;28;20048;-94
2021/12/29 09:35:13;;;;;;;16.38;10.90;;;;;;;11.49;100.00;98258.88;5097162;28;20040;-94
2021/12/29 09:37:40;;;;;;;21.73;13.80;;;;;;;11.55;100.00;98263.97;5096574;28;20135;-93
2021/12/29 09:40:08;;;;;;;18.27;12.80;;;;;;;11.63;100.00;98263.66;5094839;28;20037;-94
2021/12/29 09:42:34;;;;;;;21.85;12.18;;;;;;;11.76;100.00;98272.03;5096972;28;20040;-92
2021/12/29 09:45:03;;;;;;;21.20;12.05;;;;;;;11.74;100.00;98260.59;5095053;28;20114;-94
2021/12/29 09:47:29;;;;;;;17.88;11.77;;;;;;;11.80;100.00;98263.00;5096528;28;20044;-94
2021/12/29 09:49:55;;;;;;;15.88;10.90;;;;;;;11.81;100.00;98272.72;5095509;28;20040;-95
2021/12/29 09:52:21;;;;;;;15.52;9.63;;;;;;;11.75;100.00;98276.47;5094288;28;20044;-94
2021/12/29 09:54:48;;;;;;;16.92;10.52;;;;;;;11.77;100.00;98279.09;5093766;28;20056;-94
2021/12/29 09:57:14;;;;;;;19.55;11.32;;;;;;;11.84;100.00;98284.13;5097868;28;20051;-93
2021/12/29 09:59:40;;;;;;;14.93;9.63;;;;;;;11.72;100.00;98250.84;5098187;28;20036;-94
2021/12/29 10:08:53;;;;;;;16.08;10.13;;;;;;;12.28;100.00;98268.13;5081779;28;20052;-92
2021/12/29 10:11:26;;;;;;;13.50;8.77;;;;;;;12.16;100.00;98246.47;5105221;28;20063;-93
2021/12/29 10:13:55;;;;;;;14.68;8.60;;;;;;;12.29;99.25;98267.19;5118139;28;20439;-93
2021/12/29 10:19:44;;;;;;;55.83;27.45;;;;;;;12.29;100.00;98266.34;5120487;27;20035;-93
2021/12/29 10:22:19;;;;;;;21.50;12.23;;;;;;;12.20;100.00;98258.72;5117601;28;20027;-95
2021/12/29 10:24:47;;;;;;;15.80;9.57;;;;;;;12.18;98.82;98255.25;5117517;28;20043;-94
2021/12/29 10:27:16;;;;;;;18.65;11.10;;;;;;;12.15;100.00;98260.72;5117230;28;20046;-93
2021/12/29 10:29:42;;;;;;;25.25;13.20;;;;;;;11.98;100.00;98251.63;5117236;28;20429;-93
2021/12/29 10:35:33;;;;;;;22.52;11.07;;;;;;;11.97;100.00;98263.22;5117464;28;20038;-93
2021/12/29 10:38:10;;;;;;;23.05;14.35;;;;;;;12.03;100.00;98265.59;5116869;28;20400;-93
2021/12/29 10:40:38;;;;;;;19.73;14.02;;;;;;;11.95;100.00;98259.75;5115565;28;20038;-93
2021/12/29 10:43:05;;;;;;;23.55;12.73;;;;;;;12.00;100.00;98259.56;5117120;28;20385;-93
2021/12/29 10:49:32;;;;;;;18.67;12.20;;;;;;;12.20;100.00;98258.72;5117237;28;20032;-94
2021/12/29 10:51:59;;;;;;;20.60;10.95;;;;;;;12.25;100.00;98249.63;5117444;28;20032;-94
2021/12/29 10:54:27;;;;;;;22.00;12.30;;;;;;;12.34;100.00;98253.69;5117173;28;20044;-94
2021/12/29 10:57:04;;;;;;;13.98;8.25;;;;;;;12.38;99.66;98244.59;5116780;28;20113;-94
2021/12/29 10:59:33;;;;;;;14.50;9.43;;;;;;;12.46;98.84;98250.47;5117114;28;20044;-95
2021/12/29 11:05:05;;;;;;;15.23;9.75;;;;;;;12.65;97.63;98255.88;5117217;28;19912;-96
2021/12/29 11:07:33;;;;;;;15.25;10.30;;;;;;;12.70;97.75;98248.53;5117136;28;20110;-94
2021/12/29 11:10:07;;;;;;;21.23;10.38;;;;;;;12.66;95.32;98252.28;5116992;28;20052;-93
2021/12/29 11:12:45;;;;;;;17.10;10.07;;;;;;;12.54;97.08;98232.34;5117703;28;20055;-94
2021/12/29 11:22:05;;;;;;;13.80;9.07;;;;;;;12.64;95.69;98250.63;5132358;27;20036;-94
2021/12/29 11:24:31;;;;;;;14.77;9.40;;;;;;;12.71;96.36;98252.97;5135698;27;20415;-94
2021/12/29 11:26:59;;;;;;;16.55;8.90;;;;;;;12.74;96.43;98239.47;5136786;27;20107;-92
2021/12/29 11:29:30;;;;;;;17.33;10.18;;;;;;;12.84;97.13;98233.75;5137767;27;20039;-95
2021/12/29 11:32:00;;;;;;;15.63;10.63;;;;;;;12.98;97.13;98241.13;5139131;27;20039;-96
2021/12/29 11:34:27;;;;;;;16.85;9.70;;;;;;;12.89;94.77;98224.59;5139041;27;20524;-95
2021/12/29 11:37:05;;;;;;;17.95;11.75;;;;;;;12.92;95.03;98250.25;5138546;27;20039;-96
2021/12/29 11:39:35;;;;;;;15.05;10.10;;;;;;;12.82;97.10;98255.16;5138829;27;20363;-94
2021/12/29 11:42:01;;;;;;;18.52;9.18;;;;;;;12.87;97.82;98246.94;5143076;27;20413;-95
2021/12/29 11:44:29;;;;;;;17.10;9.27;;;;;;;12.97;97.60;98231.38;5145310;27;20051;-94
2021/12/29 11:50:20;;;;;;;13.77;8.65;;;;;;;13.21;94.72;98254.28;5122071;28;20031;-93
2021/12/29 11:53:04;;;;;;;16.45;9.15;;;;;;;13.26;95.65;98252.25;5125929;28;20177;-94
2021/12/29 11:55:33;;;;;;;19.63;13.27;;;;;;;13.21;93.99;98230.25;5124552;28;20047;-94
2021/12/29 11:58:10;;;;;;;28.83;20.52;;;;;;;13.12;95.40;98228.03;5124536;28;20123;-96
2021/12/29 12:00:38;;;;;;;27.17;18.67;;;;;;;13.00;96.04;98220.56;5124345;28;20048;-94
2021/12/29 12:03:07;;;;;;;18.10;10.60;;;;;;;12.97;96.81;98226.91;5126256;28;20043;-95
2021/12/29 12:05:35;;;;;;;16.42;10.13;;;;;;;12.85;98.28;98225.66;5126063;28;20046;-96
2021/12/29 12:08:15;;;;;;;13.15;8.80;;;;;;;12.88;97.91;98235.31;5124223;28;20075;-95
2021/12/29 12:10:42;;;;;;;15.68;9.85;;;;;;;12.80;98.12;98249.03;5122900;28;20054;-96
2021/12/29 12:13:21;;;;;;;15.27;10.43;;;;;;;12.67;98.47;98238.03;5119515;28;20047;-94
2021/12/29 12:19:35;;;;;;;18.67;11.75;;;;;;;12.94;98.09;98254.59;5121451;28;20031;-94
2021/12/29 12:22:04;;;;;;;22.08;13.18;;;;;;;12.83;98.44;98238.19;5123381;28;20411;-95
2021/12/29 12:24:30;;;;;;;;;;;;;;;13.11;97.49;98250.31;5123481;28;20043;-95
2021/12/29 12:26:58;;;;;;;16.35;9.95;;;;;;;13.09;97.21;98209.47;5122335;28;19983;-95
2021/12/29 12:29:27;;;;;;;17.58;10.90;;;;;;;13.22;96.28;98199.94;5122355;28;20117;-96
2021/12/29 12:35:35;;;;;;;15.27;9.68;;;;;;;13.23;93.92;98217.72;5124656;28;20027;-95
2021/12/29 12:38:12;;;;;;;23.63;13.93;;;;;;;13.19;95.70;98208.09;5124381;28;20044;-96
2021/12/29 12:40:45;;;;;;;17.52;10.77;;;;;;;13.35;95.46;98229.63;5124222;28;20043;-96
2021/12/29 12:43:13;;;;;;;16.77;11.38;;;;;;;13.35;96.04;98226.97;5124581;28;20120;-95
2021/12/29 12:45:42;;;;;;;22.90;15.65;;;;;;;13.29;95.84;98228.13;5121316;28;20043;-95
2021/12/29 12:48:15;;;;;;;13.70;8.85;;;;;;;13.20;95.67;98212.50;5121010;28;20043;-95
2021/12/29 12:50:45;;;;;;;13.75;8.90;;;;;;;13.15;95.17;98215.38;5121462;28;20043;-96
2021/12/29 12:53:15;;;;;;;17.30;10.05;;;;;;;13.13;94.51;98213.72;5121879;28;20051;-95
2021/12/29 12:55:47;;;;;;;17.63;9.77;;;;;;;13.14;95.58;98232.34;5121544;28;20051;-96
2021/12/29 12:58:17;;;;;;;17.02;9.20;;;;;;;13.01;95.48;98219.63;5120507;28;20439;-94
2021/12/29 13:04:33;;;;;;;17.02;7.70;;;;;;;13.34;95.49;98246.63;5143518;27;20063;-96
2021/12/29 13:07:01;;;;;;;15.43;7.35;;;;;;;13.33;94.87;98213.69;5145456;27;20051;-96
2021/12/29 13:09:30;;;;;;;15.10;8.10;;;;;;;13.36;95.25;98210.03;5147048;28;20039;-96
2021/12/29 13:11:57;;;;;;;16.38;8.63;;;;;;;13.33;93.64;98204.81;5146369;28;20126;-96
2021/12/29 13:14:27;;;;;;;13.10;8.10;;;;;;;13.27;93.42;98202.38;5146876;28;20039;-96
2021/12/29 13:20:18;;;;;;;14.32;7.70;;;;;;;13.23;94.50;98207.03;5147345;28;20097;-95
2021/12/29 13:22:46;;;;;;;18.25;8.88;;;;;;;13.25;94.72;98202.47;5147598;28;20043;-95
2021/12/29 13:25:16;;;;;;;14.90;8.03;;;;;;;13.19;94.34;98194.75;5147560;28;20042;-96
2021/12/29 13:27:44;;;;;;;16.02;8.82;;;;;;;13.30;94.18;98205.81;5141080;28;20062;-95
2021/12/29 13:40:19;;;;;;;20.15;7.93;;;;;;;13.38;96.10;98216.16;5119052;28;20086;-96
2021/12/29 13:42:46;;;;;;;13.40;7.60;;;;;;;13.23;95.95;98198.13;5118857;28;20039;-96
2021/12/29 13:45:22;;;;;;;14.80;7.68;;;;;;;13.17;96.20;98193.97;5120055;28;20044;-94
2021/12/29 13:47:48;;;;;;;11.98;6.50;;;;;;;13.20;96.24;98204.47;5120388;28;20489;-95
2021/12/29 13:50:15;;;;;;;13.00;6.72;;;;;;;13.17;96.80;98209.97;5120293;28;20397;-96
2021/12/29 13:52:41;;;;;;;15.77;8.65;;;;;;;13.16;96.61;98205.56;5125807;28;20043;-95
2021/12/29 13:55:08;;;;;;;14.15;8.68;;;;;;;13.20;96.59;98212.50;5125136;28;20040;-95
2021/12/29 13:57:35;;;;;;;18.88;9.88;;;;;;;13.03;96.68;98196.41;5125034;28;20070;-96
2021/12/29 14:00:02;;;;;;;17.50;8.30;;;;;;;13.02;96.81;98195.53;5124990;28;20062;-94
2021/12/29 14:02:31;;;;;;;16.27;8.35;;;;;;;13.18;96.72;98226.84;5124902;28;20048;-95
2021/12/29 14:04:57;;;;;;;16.25;7.68;;;;;;;13.09;96.30;98204.13;5125900;28;20044;-95
2021/12/29 14:07:26;;;;;;;21.27;11.27;;;;;;;13.03;94.96;98204.41;5127536;28;20400;-96
2021/12/29 14:09:58;;;;;;;35.33;14.27;;;;;;;13.04;94.96;98212.34;5126630;28;20059;-96
2021/12/29 14:12:25;;;;;;;18.20;9.23;;;;;;;12.94;95.59;98195.88;5125473;28;20047;-96
2021/12/29 14:21:28;;;;;;;21.95;12.35;;;;;;;12.85;97.41;98220.31;5025055;28;20068;-96
2021/12/29 14:23:56;;;;;;;24.23;11.32;;;;;;;12.73;97.82;98207.56;5025935;28;20065;-96
2021/12/29 14:26:24;;;;;;;19.48;10.88;;;;;;;12.64;98.52;98210.59;5026621;28;20061;-95
2021/12/29 14:28:53;;;;;;;17.60;9.15;;;;;;;12.54;99.31;98211.00;5026161;28;20105;-96
2021/12/29 14:31:23;;;;;;;14.52;8.75;;;;;;;12.50;99.68;98225.41;5027167;28;20498;-95
2021/12/29 14:33:51;;;;;;;15.48;8.95;;;;;;;12.40;100.00;98213.41;5027137;28;20050;-96
2021/12/29 14:36:29;;;;;;;14.98;8.88;;;;;;;12.31;100.00;98221.81;5026700;28;20052;-96
2021/12/29 14:39:01;;;;;;;18.52;10.13;;;;;;;12.26;100.00;98229.16;5023110;28;20048;-96
2021/12/29 14:41:27;;;;;;;13.10;7.80;;;;;;;12.19;100.00;98225.88;5026763;28;20084;-96
2021/12/29 14:43:56;;;;;;;13.88;8.55;;;;;;;12.13;100.00;98221.66;5027031;28;20046;-96
2021/12/29 14:49:56;;;;;;;12.02;8.13;;;;;;;12.17;100.00;98246.41;5028667;28;20045;-96
2021/12/29 14:52:25;;;;;;;15.60;10.18;;;;;;;11.96;100.00;98226.81;5030611;28;20073;-95
2021/12/29 14:54:53;;;;;;;12.82;7.95;;;;;;;12.03;100.00;98236.28;5077556;28;20044;-95